Terminal Aerodrome Forecast
Issued by NWS

Home | Current Version | Previous Version | Graphics & Text | Print | Product List | Glossary On
Versions: 1 2 3 4 5 6 7 8 9 10 11 12 13 14
000
FTUS43 KBIS 221500 AAA
TAFMOT
TAF AMD
KMOT 221516Z 2215/2312 24018G23KT P6SM OVC100
     FM221800 26016G24KT P6SM SCT090
     FM230000 25008KT P6SM SCT040
     FM230300 24007KT P6SM SKC=

USA.gov is the U.S. government's official web portal to all federal, state and local government web resources and services.